Time;durP1;ratioP1;P1;durP2;ratioP2;P2;SDS_P1;SDS_P2;PMS_P1;PMS_P2;Temp;Humidity;BMP_temperature;BMP_pressure;BME280_temperature;BME280_humidity;BME280_pressure;Samples;Min_cycle;Max_cycle;Signal;HPM_P1;HPM_P2
2023/08/18 00:03:52;;;;;;;5.47;2.50;;;;;;;;;;10559875;28;20403;-95
2023/08/18 00:08:54;;;;;;;5.65;2.60;;;;;;;;;;10558941;28;20489;-94
2023/08/18 00:13:56;;;;;;;3.47;2.22;;;;;;;;;;10558798;28;20400;-94
2023/08/18 00:19:00;;;;;;;4.37;2.50;;;;;;;;;;10559751;28;21074;-94
2023/08/18 00:24:03;;;;;;;4.27;2.50;;;;;;;;;;10558919;28;20478;-94
2023/08/18 00:29:05;;;;;;;3.80;2.58;;;;;;;;;;10563239;28;20409;-94
2023/08/18 00:34:09;;;;;;;4.03;2.72;;;;;;;;;;10559692;28;20469;-94
2023/08/18 00:39:11;;;;;;;5.95;2.90;;;;;;;;;;10562105;28;20475;-94
2023/08/18 00:44:14;;;;;;;5.20;2.90;;;;;;;;;;10562620;28;20461;-93
2023/08/18 00:49:19;;;;;;;4.50;2.80;;;;;;;;;;10560595;28;20410;-94
2023/08/18 00:54:22;;;;;;;4.65;2.63;;;;;;;;;;10563030;28;20900;-94
2023/08/18 00:59:25;;;;;;;6.33;3.07;;;;;;;;;;10563566;28;20410;-95
2023/08/18 01:04:29;;;;;;;4.90;3.05;;;;;;;;;;10562835;28;20479;-95
2023/08/18 01:09:32;;;;;;;3.90;2.85;;;;;;;;;;10556302;28;20467;-94
2023/08/18 01:14:42;;;;;;;5.80;3.20;;;;;;;;;;10566296;28;20434;-95
2023/08/18 01:19:47;;;;;;;6.73;3.27;;;;;;;;;;10580925;28;20414;-94
2023/08/18 01:24:51;;;;;;;4.80;3.00;;;;;;;;;;10580033;28;20412;-95
2023/08/18 01:29:54;;;;;;;6.10;3.13;;;;;;;;;;10561753;28;20436;-95
2023/08/18 01:34:59;;;;;;;5.70;3.47;;;;;;;;;;10562009;28;20455;-95
2023/08/18 01:40:04;;;;;;;6.60;3.67;;;;;;;;;;10565872;28;20953;-94
2023/08/18 01:45:11;;;;;;;7.73;3.17;;;;;;;;;;10562062;28;20416;-95
2023/08/18 01:50:13;;;;;;;6.15;3.20;;;;;;;;;;10564630;28;20395;-96
2023/08/18 01:55:17;;;;;;;5.07;3.27;;;;;;;;;;10564535;28;20408;-94
2023/08/18 02:00:20;;;;;;;4.67;3.03;;;;;;;;;;10567693;28;20414;-94
2023/08/18 02:05:22;;;;;;;5.68;3.40;;;;;;;;;;10571760;28;20410;-95
2023/08/18 02:10:26;;;;;;;4.22;3.08;;;;;;;;;;10564633;28;20441;-95
2023/08/18 02:15:28;;;;;;;6.93;2.90;;;;;;;;;;10579930;28;20400;-95
2023/08/18 02:20:31;;;;;;;4.90;3.40;;;;;;;;;;10562282;28;20410;-95
2023/08/18 02:25:34;;;;;;;5.05;3.10;;;;;;;;;;10565574;28;20396;-94
2023/08/18 02:30:37;;;;;;;4.53;3.17;;;;;;;;;;10563624;28;20914;-94
2023/08/18 02:35:42;;;;;;;4.88;3.30;;;;;;;;;;10561440;28;20420;-94
2023/08/18 02:40:46;;;;;;;4.80;3.00;;;;;;;;;;10564390;28;20461;-93
2023/08/18 02:45:48;;;;;;;4.03;2.92;;;;;;;;;;10568894;28;20436;-94
2023/08/18 02:50:51;;;;;;;5.87;2.87;;;;;;;;;;10566074;28;20402;-93
2023/08/18 02:55:58;;;;;;;4.43;3.05;;;;;;;;;;10568891;28;20442;-94
2023/08/18 03:01:03;;;;;;;4.15;3.08;;;;;;;;;;10562168;28;20434;-94
2023/08/18 03:06:08;;;;;;;3.97;2.70;;;;;;;;;;10564957;28;20407;-95
2023/08/18 03:11:12;;;;;;;5.00;3.05;;;;;;;;;;10562930;28;20461;-94
2023/08/18 03:16:18;;;;;;;3.37;2.70;;;;;;;;;;10561992;28;20879;-94
2023/08/18 03:21:20;;;;;;;3.45;2.63;;;;;;;;;;10561465;28;20945;-93
2023/08/18 03:26:24;;;;;;;3.43;2.70;;;;;;;;;;10565108;28;20405;-94
2023/08/18 03:31:26;;;;;;;3.70;2.60;;;;;;;;;;10566974;28;20422;-94
2023/08/18 03:36:28;;;;;;;3.30;2.60;;;;;;;;;;10566988;28;20406;-94
2023/08/18 03:41:32;;;;;;;3.67;2.33;;;;;;;;;;10560299;28;20444;-94
2023/08/18 03:46:35;;;;;;;2.47;1.88;;;;;;;;;;10557623;28;20412;-94
2023/08/18 03:51:37;;;;;;;2.90;2.20;;;;;;;;;;10568199;28;20414;-94
2023/08/18 03:56:41;;;;;;;3.50;1.90;;;;;;;;;;10592965;28;20517;-95
2023/08/18 04:01:44;;;;;;;4.03;1.97;;;;;;;;;;10591291;28;20501;-95
2023/08/18 04:06:46;;;;;;;3.05;2.10;;;;;;;;;;10586896;28;20451;-96
2023/08/18 04:11:50;;;;;;;2.40;1.60;;;;;;;;;;10580552;28;20411;-94
2023/08/18 04:16:53;;;;;;;2.47;1.97;;;;;;;;;;10583768;28;20420;-94
2023/08/18 04:21:55;;;;;;;3.42;1.80;;;;;;;;;;10581157;28;20511;-94
2023/08/18 04:27:00;;;;;;;1.73;1.63;;;;;;;;;;10572708;28;20444;-94
2023/08/18 04:32:04;;;;;;;3.75;2.20;;;;;;;;;;10563872;28;20428;-94
2023/08/18 04:37:06;;;;;;;3.93;1.80;;;;;;;;;;10575509;28;20404;-94
2023/08/18 04:42:10;;;;;;;4.25;2.65;;;;;;;;;;10571222;28;20438;-96
2023/08/18 04:47:13;;;;;;;2.88;2.05;;;;;;;;;;10554446;28;20449;-95
2023/08/18 04:52:16;;;;;;;3.20;1.97;;;;;;;;;;10565030;28;20436;-95
2023/08/18 04:57:20;;;;;;;2.40;1.87;;;;;;;;;;10568123;28;20440;-94
2023/08/18 05:02:22;;;;;;;2.77;2.17;;;;;;;;;;10574354;28;20420;-94
2023/08/18 05:07:26;;;;;;;3.00;2.00;;;;;;;;;;10579061;28;20411;-94
2023/08/18 05:12:33;;;;;;;2.23;2.00;;;;;;;;;;10577536;28;20424;-95
2023/08/18 05:17:36;;;;;;;3.08;2.08;;;;;;;;;;10583991;28;20406;-94
2023/08/18 05:22:39;;;;;;;4.13;2.50;;;;;;;;;;10571839;28;20396;-94
2023/08/18 05:27:43;;;;;;;2.28;2.08;;;;;;;;;;10584557;28;20428;-96
2023/08/18 05:32:46;;;;;;;3.63;2.33;;;;;;;;;;10600440;28;20438;-94
2023/08/18 07:42:32;;;;;;;5.38;2.80;;;;;;;;;;10529089;28;20471;-96
2023/08/18 07:47:37;;;;;;;5.80;2.92;;;;;;;;;;10573196;28;20407;-96
2023/08/18 07:52:41;;;;;;;4.45;2.70;;;;;;;;;;10571107;28;20404;-95
2023/08/18 07:57:45;;;;;;;5.60;2.97;;;;;;;;;;10570788;28;20400;-96
2023/08/18 08:02:49;;;;;;;3.05;2.72;;;;;;;;;;10570963;28;20509;-96
2023/08/18 08:07:51;;;;;;;5.77;3.10;;;;;;;;;;10570632;28;20476;-96
2023/08/18 08:12:55;;;;;;;3.03;2.53;;;;;;;;;;10568858;28;20463;-96
2023/08/18 08:17:58;;;;;;;2.63;2.30;;;;;;;;;;10569652;28;20410;-95
2023/08/18 08:23:00;;;;;;;4.28;2.40;;;;;;;;;;10572823;28;20767;-95
2023/08/18 08:28:05;;;;;;;3.53;2.43;;;;;;;;;;10546663;28;20408;-95
2023/08/18 08:33:08;;;;;;;2.83;2.42;;;;;;;;;;10546134;28;20408;-95
2023/08/18 08:38:10;;;;;;;2.95;2.38;;;;;;;;;;10566525;28;20498;-96
2023/08/18 08:43:14;;;;;;;4.57;2.60;;;;;;;;;;10567972;28;20935;-96
2023/08/18 08:48:20;;;;;;;4.63;2.03;;;;;;;;;;10570242;28;20440;-96
2023/08/18 08:53:29;;;;;;;3.28;2.60;;;;;;;;;;10564514;28;20403;-96
2023/08/18 08:58:33;;;;;;;2.63;2.42;;;;;;;;;;10561978;28;20460;-96
2023/08/18 09:03:36;;;;;;;3.67;3.38;;;;;;;;;;10566097;28;20416;-96
2023/08/18 09:08:38;;;;;;;4.20;3.80;;;;;;;;;;10565072;28;20400;-95
2023/08/18 09:13:42;;;;;;;4.00;3.65;;;;;;;;;;10576234;28;20432;-96
2023/08/18 09:18:46;;;;;;;5.43;4.05;;;;;;;;;;10571360;28;20409;-96
2023/08/18 09:23:55;;;;;;;4.50;4.05;;;;;;;;;;10575478;28;20416;-96
2023/08/18 09:28:59;;;;;;;4.22;3.85;;;;;;;;;;10570238;28;20559;-96
2023/08/18 09:34:02;;;;;;;5.88;4.25;;;;;;;;;;10565682;28;20407;-95
2023/08/18 09:39:05;;;;;;;4.90;4.40;;;;;;;;;;10564129;28;20402;-95
2023/08/18 09:44:09;;;;;;;4.68;4.18;;;;;;;;;;10560150;28;20438;-96
2023/08/18 09:49:13;;;;;;;4.63;4.23;;;;;;;;;;10566716;28;20408;-96
2023/08/18 09:54:20;;;;;;;5.53;4.50;;;;;;;;;;10567605;28;20434;-95
2023/08/18 09:59:29;;;;;;;6.22;4.85;;;;;;;;;;10582862;28;20488;-96
2023/08/18 10:04:39;;;;;;;6.93;4.40;;;;;;;;;;10583387;28;20469;-96
2023/08/18 10:09:43;;;;;;;5.40;4.30;;;;;;;;;;10568371;28;20483;-95
2023/08/18 10:14:48;;;;;;;5.20;4.20;;;;;;;;;;10573767;28;20402;-95
2023/08/18 10:19:54;;;;;;;5.73;4.67;;;;;;;;;;10574849;28;20424;-96
2023/08/18 10:24:57;;;;;;;5.97;5.38;;;;;;;;;;10577046;28;20420;-96
2023/08/18 10:30:23;;;;;;;5.70;5.10;;;;;;;;;;10552337;28;20442;-95
2023/08/18 10:35:28;;;;;;;5.60;5.13;;;;;;;;;;10573203;28;20408;-96
2023/08/18 10:40:33;;;;;;;5.57;5.07;;;;;;;;;;10576410;28;20464;-95
2023/08/18 10:45:37;;;;;;;6.25;5.57;;;;;;;;;;10570703;28;20416;-96
2023/08/18 10:50:43;;;;;;;5.55;5.05;;;;;;;;;;10570294;28;20458;-96
2023/08/18 10:55:45;;;;;;;6.68;5.43;;;;;;;;;;10576379;28;20406;-95
2023/08/18 11:00:50;;;;;;;5.68;5.10;;;;;;;;;;10574300;28;20501;-96
2023/08/18 11:05:53;;;;;;;5.30;4.90;;;;;;;;;;10573803;28;20412;-96
2023/08/18 11:10:56;;;;;;;7.60;5.40;;;;;;;;;;10572488;28;20403;-96
2023/08/18 11:15:59;;;;;;;6.15;5.35;;;;;;;;;;10576367;28;20403;-95
2023/08/18 11:21:03;;;;;;;6.53;5.38;;;;;;;;;;10549838;28;20482;-96
2023/08/18 11:26:05;;;;;;;6.07;5.37;;;;;;;;;;10550581;28;20438;-95
2023/08/18 11:31:10;;;;;;;6.90;5.50;;;;;;;;;;10550120;28;20400;-96
2023/08/18 11:36:14;;;;;;;6.15;5.55;;;;;;;;;;10571894;28;20403;-96
2023/08/18 11:41:16;;;;;;;6.30;5.50;;;;;;;;;;10576363;28;20414;-96
2023/08/18 11:46:21;;;;;;;5.90;5.20;;;;;;;;;;10571475;28;20408;-96
2023/08/18 11:51:23;;;;;;;5.90;5.37;;;;;;;;;;10570844;28;20429;-95
2023/08/18 11:56:27;;;;;;;6.50;5.90;;;;;;;;;;10575041;28;20434;-96
2023/08/18 12:01:35;;;;;;;6.55;5.75;;;;;;;;;;10568357;28;20493;-96
2023/08/18 12:06:37;;;;;;;6.15;5.60;;;;;;;;;;10549417;28;20450;-96
2023/08/18 12:11:40;;;;;;;6.70;5.72;;;;;;;;;;10549006;28;20404;-96
2023/08/18 12:16:44;;;;;;;6.20;5.60;;;;;;;;;;10547750;28;20408;-96
2023/08/18 12:21:47;;;;;;;6.55;5.47;;;;;;;;;;10559200;28;20414;-96
2023/08/18 12:26:50;;;;;;;6.35;5.75;;;;;;;;;;10570132;28;20412;-94
2023/08/18 12:31:54;;;;;;;6.35;5.63;;;;;;;;;;10562567;28;20787;-92
2023/08/18 12:36:59;;;;;;;7.53;6.00;;;;;;;;;;10563898;28;20412;-92
2023/08/18 12:42:01;;;;;;;6.38;5.75;;;;;;;;;;10588028;28;20907;-93
2023/08/18 12:47:06;;;;;;;6.60;6.00;;;;;;;;;;10583553;28;20454;-92
2023/08/18 12:52:09;;;;;;;5.90;5.40;;;;;;;;;;10561002;28;20807;-95
2023/08/18 12:57:11;;;;;;;6.67;6.07;;;;;;;;;;10490417;22;20423;-92
2023/08/18 13:02:16;;;;;;;7.17;5.97;;;;;;;;;;10481998;28;20414;-94
2023/08/18 13:07:18;;;;;;;6.23;5.63;;;;;;;;;;10482163;28;20899;-94
2023/08/18 13:12:23;;;;;;;6.72;5.75;;;;;;;;;;10458745;28;23108;-93
2023/08/18 13:17:27;;;;;;;6.00;5.50;;;;;;;;;;10475447;28;20407;-93
2023/08/18 13:22:30;;;;;;;6.85;5.80;;;;;;;;;;10475405;28;20427;-93
2023/08/18 13:27:32;;;;;;;6.85;5.80;;;;;;;;;;10476241;28;20487;-93
2023/08/18 13:32:37;;;;;;;6.47;5.95;;;;;;;;;;10473358;28;20449;-93
2023/08/18 13:37:40;;;;;;;6.68;5.60;;;;;;;;;;10473196;28;20418;-93
2023/08/18 13:42:42;;;;;;;6.20;5.60;;;;;;;;;;10472434;28;20477;-93
2023/08/18 13:47:46;;;;;;;6.65;5.93;;;;;;;;;;10480304;28;20495;-94
2023/08/18 13:52:48;;;;;;;6.13;5.60;;;;;;;;;;10475534;28;20440;-94
2023/08/18 13:57:51;;;;;;;6.20;5.63;;;;;;;;;;10476426;28;20415;-94
2023/08/18 14:02:55;;;;;;;6.68;5.85;;;;;;;;;;10472001;28;20416;-93
2023/08/18 14:07:58;;;;;;;6.17;5.57;;;;;;;;;;10476012;28;20476;-94
2023/08/18 14:13:00;;;;;;;6.03;5.50;;;;;;;;;;10471979;28;20770;-94
2023/08/18 14:18:05;;;;;;;6.00;5.40;;;;;;;;;;10472490;28;20407;-94
2023/08/18 14:23:07;;;;;;;6.32;5.80;;;;;;;;;;10474813;28;20471;-94
2023/08/18 14:28:10;;;;;;;6.18;5.57;;;;;;;;;;10471123;28;20406;-94
2023/08/18 14:33:13;;;;;;;5.70;5.10;;;;;;;;;;10474346;28;20408;-93
2023/08/18 14:38:16;;;;;;;6.50;5.80;;;;;;;;;;10475532;28;20413;-94
2023/08/18 14:43:19;;;;;;;6.10;5.50;;;;;;;;;;10473793;28;20472;-94
2023/08/18 14:48:23;;;;;;;7.37;5.37;;;;;;;;;;10479261;28;20811;-94
2023/08/18 14:53:25;;;;;;;5.80;5.20;;;;;;;;;;10478404;28;20418;-94
2023/08/18 14:58:28;;;;;;;6.63;5.53;;;;;;;;;;10474751;28;20407;-94
2023/08/18 15:03:32;;;;;;;5.53;5.10;;;;;;;;;;10479120;28;20481;-94
2023/08/18 15:08:35;;;;;;;5.65;5.15;;;;;;;;;;10485426;28;20418;-94
2023/08/18 15:13:38;;;;;;;6.05;5.45;;;;;;;;;;10481998;28;20463;-95
2023/08/18 15:18:42;;;;;;;5.97;5.40;;;;;;;;;;10470752;28;20438;-95
2023/08/18 15:23:44;;;;;;;6.45;5.70;;;;;;;;;;10483174;28;20414;-95
2023/08/18 15:28:46;;;;;;;5.78;5.28;;;;;;;;;;10479703;28;20416;-94
2023/08/18 15:33:50;;;;;;;5.80;5.27;;;;;;;;;;10476961;28;20441;-94
2023/08/18 15:38:53;;;;;;;6.23;5.63;;;;;;;;;;10473579;28;20414;-94
2023/08/18 15:43:55;;;;;;;5.90;5.40;;;;;;;;;;10478367;28;20446;-94
2023/08/18 15:48:59;;;;;;;5.90;5.07;;;;;;;;;;10480766;28;20412;-94
2023/08/18 15:54:03;;;;;;;6.72;5.30;;;;;;;;;;10473206;28;20469;-94
2023/08/18 15:59:05;;;;;;;5.70;5.20;;;;;;;;;;10484001;28;20438;-94
2023/08/18 16:04:09;;;;;;;6.03;5.50;;;;;;;;;;10479178;28;20440;-94
2023/08/18 16:09:11;;;;;;;5.93;5.40;;;;;;;;;;10456982;28;20497;-93
2023/08/18 16:14:14;;;;;;;6.07;5.50;;;;;;;;;;10456544;28;20407;-94
2023/08/18 16:19:18;;;;;;;6.10;5.50;;;;;;;;;;10462243;28;20446;-94
2023/08/18 16:24:21;;;;;;;6.18;5.57;;;;;;;;;;10474938;28;20418;-93
2023/08/18 16:29:23;;;;;;;6.78;6.15;;;;;;;;;;10479155;28;20818;-96
2023/08/18 16:34:28;;;;;;;7.70;5.87;;;;;;;;;;10478938;28;20480;-95
2023/08/18 16:39:31;;;;;;;6.70;6.10;;;;;;;;;;10478736;28;20402;-95
2023/08/18 16:44:33;;;;;;;7.00;6.17;;;;;;;;;;10482283;28;20418;-96
2023/08/18 16:49:38;;;;;;;6.78;6.18;;;;;;;;;;10506266;28;20446;-96
2023/08/18 16:54:41;;;;;;;8.17;6.63;;;;;;;;;;10478303;28;21026;-95
2023/08/18 16:59:43;;;;;;;8.02;7.00;;;;;;;;;;10495988;28;21022;-95
2023/08/18 17:04:47;;;;;;;7.07;6.47;;;;;;;;;;10476324;28;20628;-96
2023/08/18 17:09:50;;;;;;;7.60;6.90;;;;;;;;;;10478959;28;20423;-95
2023/08/18 18:40:28;;;;;;;11.48;7.70;;;;;;;;;;10461027;28;20477;-94
2023/08/18 18:45:31;;;;;;;10.02;7.65;;;;;;;;;;10441691;28;20419;-94
2023/08/18 18:50:34;;;;;;;8.82;7.78;;;;;;;;;;10438928;28;20412;-94
2023/08/18 18:55:37;;;;;;;8.75;7.88;;;;;;;;;;10441640;28;20409;-94
2023/08/18 19:00:40;;;;;;;8.43;7.53;;;;;;;;;;10437965;28;20475;-94
2023/08/18 19:05:42;;;;;;;9.90;8.17;;;;;;;;;;10436348;28;20479;-94
2023/08/18 19:10:46;;;;;;;10.23;7.77;;;;;;;;;;10437034;28;20408;-94
2023/08/18 19:15:48;;;;;;;8.60;7.70;;;;;;;;;;10437287;28;20878;-95
2023/08/18 19:20:51;;;;;;;8.85;7.93;;;;;;;;;;10434472;28;20411;-94
2023/08/18 19:25:54;;;;;;;10.52;8.80;;;;;;;;;;10442272;28;20421;-95
2023/08/18 19:30:57;;;;;;;10.07;8.00;;;;;;;;;;10435204;28;20417;-94
2023/08/18 19:35:59;;;;;;;11.50;8.60;;;;;;;;;;10439662;28;20408;-94
2023/08/18 19:41:04;;;;;;;9.10;8.30;;;;;;;;;;10436268;28;20463;-95
2023/08/18 19:46:07;;;;;;;9.73;8.02;;;;;;;;;;10437688;28;20420;-94
2023/08/18 19:51:09;;;;;;;8.60;7.63;;;;;;;;;;10435226;28;20957;-94
2023/08/18 19:56:13;;;;;;;11.00;8.33;;;;;;;;;;10436568;28;20471;-94
2023/08/18 20:01:15;;;;;;;8.77;7.85;;;;;;;;;;10434768;28;20483;-93
2023/08/18 20:06:18;;;;;;;8.63;7.40;;;;;;;;;;10437893;28;20474;-94
2023/08/18 20:11:22;;;;;;;8.52;7.57;;;;;;;;;;10435010;28;20427;-94
2023/08/18 20:16:24;;;;;;;8.40;7.60;;;;;;;;;;10435683;28;20420;-94
2023/08/18 20:21:26;;;;;;;10.43;7.73;;;;;;;;;;10433454;28;20469;-94
2023/08/18 20:26:30;;;;;;;9.10;7.03;;;;;;;;;;10433566;28;20402;-95
2023/08/18 20:31:33;;;;;;;8.50;7.30;;;;;;;;;;10437930;28;20408;-95
2023/08/18 20:36:35;;;;;;;8.50;7.45;;;;;;;;;;10433619;28;20407;-94
2023/08/18 20:41:39;;;;;;;9.07;8.15;;;;;;;;;;10434308;28;20998;-95
2023/08/18 20:46:41;;;;;;;14.70;10.30;;;;;;;;;;10432652;28;20479;-95
2023/08/18 20:51:44;;;;;;;13.27;10.88;;;;;;;;;;10435555;28;20510;-95
2023/08/18 20:56:50;;;;;;;12.90;11.10;;;;;;;;;;10440239;28;20890;-95
2023/08/18 21:01:52;;;;;;;12.88;11.55;;;;;;;;;;10416827;28;20824;-94
2023/08/18 21:06:55;;;;;;;13.73;12.15;;;;;;;;;;10414028;28;20480;-94
2023/08/18 21:11:58;;;;;;;14.23;11.85;;;;;;;;;;10434454;28;20408;-95
2023/08/18 21:17:01;;;;;;;15.10;11.40;;;;;;;;;;10439580;28;20450;-94
2023/08/18 21:22:03;;;;;;;15.60;11.80;;;;;;;;;;10439719;28;20407;-94
2023/08/18 21:27:07;;;;;;;14.75;12.23;;;;;;;;;;10437085;28;20405;-94
2023/08/18 21:32:10;;;;;;;15.00;12.27;;;;;;;;;;10438700;28;20400;-94
2023/08/18 21:37:12;;;;;;;14.60;11.82;;;;;;;;;;10436225;28;20772;-94
2023/08/18 21:42:16;;;;;;;13.90;11.55;;;;;;;;;;10435153;28;20413;-93
2023/08/18 21:47:18;;;;;;;14.83;12.30;;;;;;;;;;10432297;28;20421;-93
2023/08/18 21:52:21;;;;;;;16.40;12.80;;;;;;;;;;10436097;28;20419;-94
2023/08/18 21:57:24;;;;;;;17.77;13.80;;;;;;;;;;10440092;28;20407;-94
2023/08/18 22:02:27;;;;;;;17.08;15.13;;;;;;;;;;10447762;28;20467;-94
2023/08/18 22:07:29;;;;;;;16.83;14.45;;;;;;;;;;10441037;28;20412;-94
2023/08/18 22:12:33;;;;;;;16.47;13.90;;;;;;;;;;10441801;28;20475;-95
2023/08/18 22:17:36;;;;;;;14.57;12.35;;;;;;;;;;10448813;28;20465;-96
2023/08/18 22:22:38;;;;;;;14.90;12.60;;;;;;;;;;10447986;28;20465;-96
2023/08/18 22:27:42;;;;;;;15.40;12.63;;;;;;;;;;10437566;28;20425;-93
2023/08/18 22:32:44;;;;;;;15.67;12.60;;;;;;;;;;10436920;28;20420;-94
2023/08/18 22:37:47;;;;;;;15.20;12.13;;;;;;;;;;10432238;28;20405;-94
2023/08/18 22:42:51;;;;;;;14.50;12.85;;;;;;;;;;10435105;28;20487;-93
2023/08/18 22:47:53;;;;;;;13.30;11.73;;;;;;;;;;10441682;28;20475;-94
2023/08/18 22:52:55;;;;;;;15.90;11.77;;;;;;;;;;10418812;28;20885;-94
2023/08/18 22:57:59;;;;;;;12.48;11.27;;;;;;;;;;10424322;28;20467;-96
2023/08/18 23:03:03;;;;;;;13.20;11.80;;;;;;;;;;10435445;28;20419;-96
2023/08/18 23:08:05;;;;;;;14.07;11.20;;;;;;;;;;10446546;28;20465;-93
2023/08/18 23:13:09;;;;;;;12.70;11.40;;;;;;;;;;10437140;28;20467;-96
2023/08/18 23:18:12;;;;;;;12.93;11.47;;;;;;;;;;10447195;28;20789;-96
2023/08/18 23:23:14;;;;;;;13.50;10.98;;;;;;;;;;10447019;28;20416;-96
2023/08/18 23:28:18;;;;;;;13.02;11.18;;;;;;;;;;10449696;28;20764;-96
2023/08/18 23:33:25;;;;;;;14.27;11.13;;;;;;;;;;10448329;28;20469;-96
2023/08/18 23:38:28;;;;;;;13.60;11.30;;;;;;;;;;10448271;28;20413;-96
2023/08/18 23:43:32;;;;;;;14.88;11.90;;;;;;;;;;10447073;28;20404;-94
2023/08/18 23:48:40;;;;;;;14.52;11.40;;;;;;;;;;10439316;28;20974;-95
2023/08/18 23:53:43;;;;;;;13.77;10.98;;;;;;;;;;10436726;28;20412;-95
2023/08/18 23:58:47;;;;;;;13.10;11.67;;;;;;;;;;10437811;28;20465;-95
